»·PEaware :: EJA550 KSNA-KEGE

EJA550 :: KSNA-KEGE

FLIGHT INFORMATION

Flight Status: Arrived
Operator:
Netjets Aviation
More flights by this operator :: More flights under this callsign
Pilot: Isaac R. (8401)
Aircraft: CESSNA 550 CITATION 2/S2/BRAVO
(C550)
More flights by this aircraft type
Origin: KSNA John Wayne-Orange Co
United States
Destination: KEGE Eagle Co Regl
United States
More flights between these airports :: More routes between these airports
Route: FINZZ2 BEALE J146 DVC JNC JESIE RLG
File this flight plan on PilotEdge
Remarks:
Altitude:
(Current/Filed)
39,000ft
Speed:
(Current/Filed)
470kts
Departed: 20-Jan-19 11:13 AM
Arrived: 20-Jan-19 01:15 PM
Distance/Time
Traveled:
637nm/2:02
Distance/Time
To Go:
Arrived

Flight Plot

Page will automatically refresh every two minutes.

Flight plan parsing failed; only flown route is shown


Map Options




Map Legend


Flown Route
Filed Route
Departure Airport
Arrival Airport
Navaid (VOR, NDB)
Fix

Horizontal Profiles

Position Reports

Time Latitude Longitude Heading Altitude Ground
Speed
20-Jan-19 10:54 33.671662 -117.867651 209 59ft 0kts
20-Jan-19 10:55 33.671662 -117.867651 209 59ft 0kts
20-Jan-19 10:56 33.671662 -117.867651 209 59ft 0kts
20-Jan-19 10:57 33.671662 -117.867651 209 59ft 0kts
20-Jan-19 10:58 33.671662 -117.867651 209 59ft 0kts
20-Jan-19 10:59 33.671662 -117.867651 209 59ft 0kts
20-Jan-19 11:00 33.671662 -117.867651 209 59ft 0kts
20-Jan-19 11:01 33.671662 -117.867651 209 59ft 0kts
20-Jan-19 11:02 33.671662 -117.867651 209 59ft 0kts
20-Jan-19 11:03 33.671662 -117.867651 209 59ft 0kts
20-Jan-19 11:04 33.671662 -117.867651 209 59ft 0kts
20-Jan-19 11:05 33.671661 -117.867652 209 59ft 0kts
20-Jan-19 11:06 33.671564 -117.867984 300 59ft 2kts
20-Jan-19 11:07 33.672975 -117.867411 45 59ft 8kts
20-Jan-19 11:08 33.675657 -117.865489 28 59ft 13kts
20-Jan-19 11:09 33.679487 -117.863082 29 59ft 16kts
20-Jan-19 11:10 33.681126 -117.864229 298 59ft 12kts
20-Jan-19 11:11 33.681020 -117.865504 208 59ft 0kts
20-Jan-19 11:12 33.662180 -117.877585 209 947ft 123kts
20-Jan-19 11:13 33.629759 -117.890635 189 3534ft 121kts
20-Jan-19 11:14 33.592350 -117.896277 189 4895ft 147kts
20-Jan-19 11:16 33.552873 -117.919116 228 5881ft 176kts
20-Jan-19 11:17 33.511177 -117.967505 225 7892ft 243kts
20-Jan-19 11:18 33.512443 -118.042574 312 10517ft 263kts
20-Jan-19 11:19 33.562018 -118.106165 305 13013ft 271kts
20-Jan-19 11:20 33.642323 -118.119718 33 13001ft 345kts
20-Jan-19 11:21 33.717181 -118.056625 25 12989ft 318kts
20-Jan-19 11:22 33.795625 -118.009515 22 12990ft 315kts
20-Jan-19 11:23 33.874922 -117.963082 22 13404ft 306kts
20-Jan-19 11:24 33.939441 -117.914443 33 15632ft 243kts
20-Jan-19 11:25 33.992465 -117.865968 32 17777ft 244kts
20-Jan-19 11:26 34.050278 -117.813045 33 19432ft 267kts
20-Jan-19 11:27 34.107895 -117.750118 49 21091ft 288kts
20-Jan-19 11:28 34.159728 -117.673093 49 22522ft 310kts
20-Jan-19 11:29 34.217447 -117.587287 50 23761ft 336kts
20-Jan-19 11:30 34.277151 -117.498349 49 25224ft 346kts
20-Jan-19 11:31 34.338542 -117.406667 49 26544ft 355kts
20-Jan-19 11:32 34.401666 -117.312154 49 27735ft 364kts
20-Jan-19 11:33 34.466037 -117.215597 49 28804ft 373kts
20-Jan-19 11:34 34.531997 -117.116495 49 29784ft 380kts
20-Jan-19 11:35 34.598592 -117.015675 49 30691ft 386kts
20-Jan-19 11:36 34.665824 -116.913018 49 31520ft 391kts
20-Jan-19 11:36 34.722471 -116.825906 49 32145ft 395kts
20-Jan-19 11:38 34.802048 -116.702551 49 32990ft 400kts
20-Jan-19 11:39 34.870958 -116.594630 49 33699ft 404kts
20-Jan-19 11:39 34.928543 -116.503819 49 34260ft 408kts
20-Jan-19 11:40 34.998082 -116.393726 49 34925ft 413kts
20-Jan-19 11:41 35.068534 -116.281562 49 35583ft 417kts
20-Jan-19 11:42 35.139053 -116.168392 49 36224ft 421kts
20-Jan-19 11:43 35.210046 -116.053360 49 36819ft 425kts
20-Jan-19 11:44 35.280903 -115.937475 49 37419ft 425kts
20-Jan-19 11:45 35.351400 -115.820659 49 37860ft 428kts
20-Jan-19 11:46 35.422456 -115.702432 49 38231ft 431kts
20-Jan-19 11:47 35.506230 -115.600376 40 38563ft 428kts
20-Jan-19 11:48 35.584275 -115.488001 44 38873ft 432kts
20-Jan-19 11:49 35.662068 -115.375480 44 39206ft 432kts
20-Jan-19 11:50 35.743474 -115.266700 30 39227ft 429kts
20-Jan-19 11:51 35.837955 -115.174549 31 39223ft 435kts
20-Jan-19 11:52 35.932211 -115.079872 31 39223ft 440kts
20-Jan-19 11:53 36.027417 -114.983571 31 39215ft 443kts
20-Jan-19 11:54 36.122912 -114.886625 31 39209ft 446kts
20-Jan-19 11:55 36.208474 -114.775684 66 39211ft 465kts
20-Jan-19 11:56 36.247410 -114.622268 71 39208ft 467kts
20-Jan-19 11:57 36.291121 -114.470920 68 39207ft 467kts
20-Jan-19 11:58 36.336620 -114.319650 68 39213ft 467kts
20-Jan-19 11:59 36.381968 -114.168815 67 39220ft 467kts
20-Jan-19 12:00 36.427120 -114.017870 68 39228ft 467kts
20-Jan-19 12:01 36.472215 -113.866350 67 39242ft 466kts
20-Jan-19 12:02 36.516947 -113.715242 67 39251ft 466kts
20-Jan-19 12:03 36.561626 -113.563489 68 39266ft 466kts
20-Jan-19 12:04 36.605985 -113.411996 68 39271ft 467kts
20-Jan-19 12:05 36.650187 -113.260105 68 39272ft 467kts
20-Jan-19 12:06 36.694352 -113.107384 68 39273ft 468kts
20-Jan-19 12:07 36.738215 -112.954861 68 39276ft 468kts
20-Jan-19 12:08 36.782037 -112.801623 68 39277ft 468kts
20-Jan-19 12:09 36.825528 -112.648685 68 39260ft 469kts
20-Jan-19 12:10 36.868884 -112.495351 68 39257ft 469kts
20-Jan-19 12:11 36.912096 -112.341371 68 39261ft 468kts
20-Jan-19 12:12 36.955078 -112.187812 68 39264ft 468kts
20-Jan-19 12:13 36.998017 -112.033541 68 39268ft 469kts
20-Jan-19 12:14 37.040619 -111.879573 67 39272ft 468kts
20-Jan-19 12:15 37.083127 -111.725049 67 39274ft 468kts
20-Jan-19 12:16 37.125289 -111.570885 67 39274ft 468kts
20-Jan-19 12:17 37.167246 -111.416566 67 39274ft 468kts
20-Jan-19 12:18 37.209167 -111.261454 67 39274ft 468kts
20-Jan-19 12:19 37.250704 -111.106763 67 39275ft 468kts
20-Jan-19 12:20 37.292148 -110.951456 67 39277ft 468kts
20-Jan-19 12:21 37.335864 -110.797972 67 39282ft 467kts
20-Jan-19 12:22 37.374712 -110.642164 68 39305ft 467kts
20-Jan-19 12:23 37.414852 -110.486604 67 39322ft 466kts
20-Jan-19 12:24 37.455099 -110.331647 67 39318ft 467kts
20-Jan-19 12:25 37.495399 -110.175888 67 39324ft 467kts
20-Jan-19 12:26 37.535388 -110.020441 67 39333ft 467kts
20-Jan-19 12:27 37.575167 -109.864859 67 39341ft 467kts
20-Jan-19 12:28 37.614875 -109.708585 67 39350ft 467kts
20-Jan-19 12:29 37.654237 -109.552697 67 39354ft 467kts
20-Jan-19 12:30 37.693500 -109.396211 67 39353ft 466kts
20-Jan-19 12:31 37.732399 -109.240191 67 39352ft 466kts
20-Jan-19 12:32 37.771162 -109.083718 67 39352ft 465kts
20-Jan-19 12:33 37.811475 -108.928915 53 39354ft 455kts
20-Jan-19 12:34 37.903314 -108.877658 328 39373ft 332kts
20-Jan-19 12:35 37.994424 -108.905346 343 39377ft 355kts
20-Jan-19 12:36 38.095275 -108.899985 350 39385ft 368kts
20-Jan-19 12:37 38.197618 -108.888663 350 39392ft 368kts
20-Jan-19 12:38 38.299745 -108.877386 350 39392ft 369kts
20-Jan-19 12:39 38.402434 -108.866025 350 39386ft 370kts
20-Jan-19 12:40 38.505000 -108.854648 350 39373ft 371kts
20-Jan-19 12:41 38.607894 -108.843199 349 39357ft 372kts
20-Jan-19 12:42 38.711254 -108.831665 349 39339ft 372kts
20-Jan-19 12:43 38.814418 -108.820120 349 39321ft 373kts
20-Jan-19 12:44 38.918001 -108.808495 349 39308ft 373kts
20-Jan-19 12:45 39.021429 -108.796854 349 39291ft 374kts
20-Jan-19 12:46 39.116189 -108.729410 53 39294ft 463kts
20-Jan-19 12:47 39.173503 -108.579953 52 39294ft 462kts
20-Jan-19 12:48 39.241283 -108.440316 47 39292ft 459kts
20-Jan-19 12:49 39.312369 -108.300872 47 37943ft 465kts
20-Jan-19 12:50 39.383220 -108.161546 47 36447ft 461kts
20-Jan-19 12:51 39.452936 -108.023969 47 34951ft 455kts
20-Jan-19 12:52 39.521677 -107.887743 47 33449ft 445kts
20-Jan-19 12:53 39.589119 -107.753570 48 31954ft 444kts
20-Jan-19 12:54 39.656251 -107.619405 48 30454ft 440kts
20-Jan-19 12:55 39.722423 -107.486654 49 28958ft 436kts
20-Jan-19 12:56 39.786612 -107.357324 49 27452ft 417kts
20-Jan-19 12:57 39.849328 -107.230471 50 25958ft 415kts
20-Jan-19 12:58 39.911107 -107.104968 50 24460ft 409kts
20-Jan-19 12:59 39.972060 -106.980578 50 22960ft 399kts
20-Jan-19 13:00 40.020021 -106.852529 79 21463ft 395kts
20-Jan-19 13:01 40.015882 -106.712925 91 19970ft 378kts
20-Jan-19 13:02 40.009348 -106.577508 91 18467ft 369kts
20-Jan-19 13:03 39.966039 -106.477699 166 16969ft 303kts
20-Jan-19 13:04 39.891189 -106.489792 205 15533ft 269kts
20-Jan-19 13:05 39.824393 -106.517565 206 15336ft 237kts
20-Jan-19 13:06 39.763302 -106.543246 207 15167ft 236kts
20-Jan-19 13:07 39.700690 -106.574749 229 14126ft 217kts
20-Jan-19 13:08 39.683232 -106.635601 258 12716ft 164kts
20-Jan-19 13:09 39.674304 -106.691684 262 11374ft 179kts
20-Jan-19 13:10 39.665340 -106.761258 256 9582ft 196kts
20-Jan-19 13:11 39.654358 -106.822052 256 7972ft 149kts
20-Jan-19 13:12 39.647266 -106.874889 261 6932ft 145kts
20-Jan-19 13:13 39.642576 -106.917776 261 6518ft 62kts
20-Jan-19 13:14 39.641100 -106.920983 81 6518ft 15kts
20-Jan-19 13:15 39.641948 -106.913266 81 6518ft 16kts
20-Jan-19 13:16 39.642326 -106.909496 107 6518ft 4kts
20-Jan-19 13:17 39.641339 -106.909459 265 6518ft 3kts
20-Jan-19 13:18 39.641330 -106.909642 260 6518ft 0kts
20-Jan-19 13:19 39.641330 -106.909642 260 6518ft 0kts
20-Jan-19 13:21 39.641330 -106.909642 260 6518ft 0kts
20-Jan-19 13:22 39.641330 -106.909642 260 6518ft 0kts
20-Jan-19 13:23 39.641330 -106.909642 260 6518ft 0kts
20-Jan-19 13:24 39.641330 -106.909642 260 6518ft 0kts
20-Jan-19 13:25 39.641330 -106.909642 260 6518ft 0kts
20-Jan-19 13:26 39.641330 -106.909642 260 6518ft 0kts
20-Jan-19 13:27 39.641330 -106.909642 260 6518ft 0kts
20-Jan-19 13:28 39.641330 -106.909642 260 6518ft 0kts
20-Jan-19 13:29 39.641330 -106.909642 260 6518ft 0kts

Navigation Log

Ident Type
Flight plan parsing failed, navigation log unavailable